createdAt,value
2022-10-08T00:01:18.874Z,2.92
2022-10-08T00:03:48.423Z,3.17
2022-10-08T00:06:17.931Z,2.55
2022-10-08T00:08:50.563Z,2.90
2022-10-08T00:11:20.105Z,2.90
2022-10-08T00:13:48.754Z,2.60
2022-10-08T00:16:20.354Z,3.15
2022-10-08T00:18:49.527Z,2.70
2022-10-08T00:21:34.183Z,2.90
2022-10-08T00:24:02.639Z,3.75
2022-10-08T00:26:32.200Z,2.83
2022-10-08T00:29:03.084Z,3.22
2022-10-08T00:31:32.773Z,2.70
2022-10-08T00:34:01.786Z,3.15
2022-10-08T00:36:32.471Z,2.80
2022-10-08T00:39:01.395Z,3.25
2022-10-08T00:41:31.111Z,2.78
2022-10-08T00:44:00.518Z,3.10
2022-10-08T00:46:30.794Z,3.00
2022-10-08T00:49:02.715Z,2.40
2022-10-08T00:51:32.498Z,3.00
2022-10-08T00:54:02.575Z,2.75
2022-10-08T00:56:32.364Z,3.20
2022-10-08T00:59:00.443Z,4.28
2022-10-08T01:01:29.718Z,2.65
2022-10-08T01:03:58.559Z,2.35
2022-10-08T01:06:30.921Z,2.90
2022-10-08T01:09:16.467Z,2.85
2022-10-08T01:11:50.282Z,2.88
2022-10-08T01:14:25.392Z,2.47
2022-10-08T01:17:01.510Z,2.85
2022-10-08T01:19:43.629Z,3.10
2022-10-08T01:22:31.254Z,3.20
2022-10-08T01:25:18.288Z,2.63
2022-10-08T01:27:47.940Z,3.00
2022-10-08T01:30:17.289Z,2.50
2022-10-08T01:32:50.809Z,2.70
2022-10-08T01:35:22.179Z,2.10
2022-10-08T01:37:50.800Z,2.67
2022-10-08T01:40:20.801Z,2.60
2022-10-08T01:42:50.272Z,3.28
2022-10-08T01:45:22.076Z,2.83
2022-10-08T01:47:51.209Z,2.65
2022-10-08T01:50:27.332Z,2.67
2022-10-08T01:52:58.030Z,2.95
2022-10-08T01:55:28.574Z,3.70
2022-10-08T01:58:00.369Z,2.75
2022-10-08T02:00:28.104Z,2.90
2022-10-08T02:02:56.598Z,2.28
2022-10-08T02:05:26.499Z,2.80
2022-10-08T02:07:55.477Z,3.00
2022-10-08T02:10:24.411Z,3.10
2022-10-08T02:12:52.297Z,2.58
2022-10-08T02:15:22.534Z,2.70
2022-10-08T02:17:55.310Z,2.95
2022-10-08T02:20:32.325Z,2.63
2022-10-08T02:23:30.211Z,2.90
2022-10-08T02:26:00.222Z,2.70
2022-10-08T02:28:44.478Z,2.58
2022-10-08T02:31:47.095Z,3.00
2022-10-08T02:34:30.424Z,2.97
2022-10-08T02:37:02.966Z,3.20
2022-10-08T02:39:32.289Z,3.72
2022-10-08T02:42:03.984Z,3.20
2022-10-08T02:44:39.255Z,3.17
2022-10-08T02:47:11.100Z,3.75
2022-10-08T02:49:41.283Z,3.05
2022-10-08T02:52:10.138Z,3.35
2022-10-08T02:54:39.810Z,3.20
2022-10-08T02:57:24.004Z,3.42
2022-10-08T02:59:51.895Z,3.13
2022-10-08T03:02:30.929Z,3.67
2022-10-08T03:05:01.925Z,3.05
2022-10-08T03:07:32.053Z,3.20
2022-10-08T03:10:01.348Z,3.40
2022-10-08T03:12:31.583Z,3.03
2022-10-08T03:14:59.904Z,3.28
2022-10-08T03:17:31.082Z,3.15
2022-10-08T03:19:59.262Z,2.85
2022-10-08T03:22:29.690Z,2.95
2022-10-08T03:24:57.490Z,2.80
2022-10-08T03:27:25.621Z,2.80
2022-10-08T03:29:57.381Z,3.60
2022-10-08T03:32:26.286Z,2.60
2022-10-08T03:34:54.454Z,3.78
2022-10-08T03:37:22.423Z,3.03
2022-10-08T03:39:50.301Z,2.88
2022-10-08T03:42:18.154Z,3.88
2022-10-08T03:44:46.036Z,2.80
2022-10-08T03:47:13.774Z,2.33
2022-10-08T03:49:41.741Z,2.40
2022-10-08T03:52:09.772Z,3.30
2022-10-08T03:54:38.097Z,2.78
2022-10-08T03:57:06.022Z,2.70
2022-10-08T03:59:34.061Z,2.47
2022-10-08T04:02:01.882Z,2.83
2022-10-08T04:04:29.805Z,3.08
2022-10-08T04:06:57.720Z,2.75
2022-10-08T04:09:25.573Z,3.13
2022-10-08T04:11:53.388Z,3.33
2022-10-08T04:14:24.188Z,2.85
2022-10-08T04:16:52.621Z,2.88
2022-10-08T04:19:20.473Z,3.47
2022-10-08T04:21:48.866Z,2.47
2022-10-08T04:24:16.680Z,2.53
2022-10-08T04:26:44.519Z,2.92
2022-10-08T04:29:12.873Z,2.60
2022-10-08T04:31:40.716Z,2.15
2022-10-08T04:34:11.687Z,2.88
2022-10-08T04:36:40.604Z,2.60
2022-10-08T04:39:11.953Z,2.30
2022-10-08T04:41:39.996Z,2.38
2022-10-08T04:44:07.847Z,2.80
2022-10-08T04:46:35.960Z,2.28
2022-10-08T04:49:05.043Z,2.20
2022-10-08T04:51:33.013Z,2.78
2022-10-08T04:54:03.141Z,2.15
2022-10-08T04:56:34.557Z,2.75
2022-10-08T04:59:03.374Z,2.22
2022-10-08T05:01:31.720Z,2.38
2022-10-08T05:04:00.506Z,2.72
2022-10-08T05:06:29.592Z,2.60
2022-10-08T05:08:59.942Z,2.55
2022-10-08T05:11:28.276Z,2.33
2022-10-08T05:14:01.579Z,2.42
2022-10-08T05:16:29.913Z,2.40
2022-10-08T05:18:58.307Z,2.95
2022-10-08T05:21:28.202Z,2.13
2022-10-08T05:23:57.883Z,2.38
2022-10-08T05:26:53.488Z,2.08
2022-10-08T05:29:16.281Z,2.80
2022-10-08T05:31:46.726Z,2.33
2022-10-08T05:34:15.619Z,2.03
2022-10-08T05:36:44.061Z,2.85
2022-10-08T05:39:12.064Z,2.28
2022-10-08T05:41:40.048Z,2.28
2022-10-08T05:44:08.688Z,2.58
2022-10-08T05:46:37.420Z,2.22
2022-10-08T05:49:07.277Z,2.53
2022-10-08T05:51:35.468Z,2.53
2022-10-08T05:54:03.363Z,2.85
2022-10-08T05:56:33.008Z,2.55
2022-10-08T05:59:00.824Z,2.58
2022-10-08T06:01:32.001Z,2.22
2022-10-08T06:04:07.799Z,2.65
2022-10-08T06:06:38.665Z,2.08
2022-10-08T06:09:07.973Z,3.00
2022-10-08T06:11:37.474Z,2.15
2022-10-08T06:14:07.931Z,2.22
2022-10-08T06:16:36.490Z,3.58
2022-10-08T06:19:05.496Z,2.70
2022-10-08T06:21:34.093Z,4.55
2022-10-08T06:24:04.608Z,2.35
2022-10-08T06:26:36.176Z,2.53
2022-10-08T06:29:06.379Z,2.10
2022-10-08T06:31:36.477Z,2.25
2022-10-08T06:34:05.760Z,2.20
2022-10-08T06:36:34.855Z,2.78
2022-10-08T06:39:06.185Z,2.47
2022-10-08T06:41:35.308Z,2.40
2022-10-08T06:44:05.840Z,2.40
2022-10-08T06:46:34.564Z,2.30
2022-10-08T06:49:04.804Z,2.67
2022-10-08T06:51:36.260Z,2.58
2022-10-08T06:54:08.314Z,2.60
2022-10-08T06:56:40.497Z,2.78
2022-10-08T06:59:11.974Z,2.38
2022-10-08T07:01:40.278Z,2.55
2022-10-08T07:04:08.146Z,2.22
2022-10-08T07:06:36.215Z,2.20
2022-10-08T07:09:05.906Z,2.40
2022-10-08T07:11:35.133Z,2.50
2022-10-08T07:14:04.101Z,2.25
2022-10-08T07:16:32.145Z,2.33
2022-10-08T07:19:00.382Z,2.50
2022-10-08T07:21:29.205Z,3.55
2022-10-08T07:23:59.288Z,2.35
2022-10-08T07:26:29.619Z,2.25
2022-10-08T07:29:01.106Z,2.15
2022-10-08T07:31:31.974Z,2.40
2022-10-08T07:34:01.087Z,2.38
2022-10-08T07:36:29.449Z,2.53
2022-10-08T07:38:59.647Z,2.53
2022-10-08T07:41:29.262Z,2.30
2022-10-08T07:44:00.201Z,2.42
2022-10-08T07:46:30.423Z,2.35
2022-10-08T07:48:59.463Z,2.10
2022-10-08T07:51:27.843Z,2.40
2022-10-08T07:54:00.201Z,2.28
2022-10-08T07:56:32.076Z,2.65
2022-10-08T07:59:01.349Z,2.22
2022-10-08T08:01:30.953Z,2.40
2022-10-08T08:04:04.039Z,2.67
2022-10-08T08:06:33.053Z,2.00
2022-10-08T08:09:01.952Z,2.20
2022-10-08T08:11:30.501Z,2.10
2022-10-08T08:13:58.432Z,2.15
2022-10-08T08:16:27.914Z,2.30
2022-10-08T08:18:59.256Z,2.38
2022-10-08T08:21:30.344Z,2.67
2022-10-08T08:24:06.180Z,2.67
2022-10-08T08:26:37.690Z,2.33
2022-10-08T08:29:12.619Z,1.95
2022-10-08T08:31:51.449Z,2.10
2022-10-08T08:34:25.075Z,1.92
2022-10-08T08:36:57.264Z,2.33
2022-10-08T08:39:31.441Z,2.40
2022-10-08T08:42:32.098Z,2.10
2022-10-08T08:45:28.148Z,2.38
2022-10-08T08:48:15.439Z,2.38
2022-10-08T08:50:48.840Z,1.98
2022-10-08T08:53:20.665Z,2.05
2022-10-08T08:55:57.400Z,2.20
2022-10-08T08:58:38.284Z,2.13
2022-10-08T09:01:31.132Z,1.90
2022-10-08T09:04:06.980Z,2.42
2022-10-08T09:06:36.335Z,1.70
2022-10-08T09:09:23.588Z,2.47
2022-10-08T09:11:51.798Z,2.20
2022-10-08T09:14:36.447Z,2.30
2022-10-08T09:17:16.428Z,2.75
2022-10-08T09:19:44.373Z,2.00
2022-10-08T09:22:20.346Z,2.40
2022-10-08T09:24:53.674Z,1.95
2022-10-08T09:27:22.154Z,1.92
2022-10-08T09:29:50.293Z,2.60
2022-10-08T09:32:20.831Z,1.88
2022-10-08T09:34:48.991Z,2.40
2022-10-08T09:37:23.891Z,1.85
2022-10-08T09:40:17.812Z,2.13
2022-10-08T09:42:46.285Z,2.17
2022-10-08T09:45:34.647Z,2.25
2022-10-08T09:48:20.177Z,2.30
2022-10-08T09:51:05.181Z,2.20
2022-10-08T09:53:41.757Z,2.25
2022-10-08T09:56:10.810Z,2.42
2022-10-08T09:58:56.751Z,2.08
2022-10-08T10:01:26.051Z,2.10
2022-10-08T10:03:57.262Z,1.60
2022-10-08T10:06:35.487Z,1.55
2022-10-08T10:09:38.808Z,2.35
2022-10-08T10:12:21.239Z,2.35
2022-10-08T10:14:58.123Z,1.90
2022-10-08T10:17:48.310Z,1.92
2022-10-08T10:20:31.104Z,2.08
2022-10-08T10:23:09.386Z,1.83
2022-10-08T10:25:51.476Z,2.30
2022-10-08T10:28:39.276Z,2.10
2022-10-08T10:31:26.201Z,2.08
2022-10-08T10:33:59.646Z,2.10
2022-10-08T10:36:32.481Z,2.13
2022-10-08T10:39:23.422Z,1.90
2022-10-08T10:42:11.285Z,3.70
2022-10-08T10:44:55.480Z,2.13
2022-10-08T10:47:30.954Z,2.28
2022-10-08T10:50:01.949Z,2.63
2022-10-08T10:53:00.219Z,2.60
2022-10-08T10:55:37.224Z,1.80
2022-10-08T10:58:36.005Z,2.50
2022-10-08T11:01:34.984Z,1.90
2022-10-08T11:04:33.453Z,2.15
2022-10-08T11:07:19.840Z,2.00
2022-10-08T11:09:56.537Z,1.90
2022-10-08T11:12:39.597Z,2.72
2022-10-08T11:15:32.880Z,2.13
2022-10-08T11:18:24.487Z,1.98
2022-10-08T11:21:21.116Z,2.10
2022-10-08T11:24:24.371Z,2.03
2022-10-08T11:29:54.051Z,2.17
2022-10-08T11:32:22.342Z,2.53
2022-10-08T11:34:58.847Z,2.50
2022-10-08T11:37:36.837Z,2.28
2022-10-08T11:40:20.402Z,2.50
2022-10-08T11:43:07.250Z,2.72
2022-10-08T11:45:40.354Z,2.47
2022-10-08T11:48:29.938Z,2.70
2022-10-08T11:51:29.358Z,2.83
2022-10-08T11:54:31.822Z,2.80
2022-10-08T11:58:06.762Z,2.47
2022-10-08T12:00:43.698Z,2.58
2022-10-08T12:03:30.403Z,2.90
2022-10-08T12:06:01.701Z,2.63
2022-10-08T12:08:50.892Z,2.22
2022-10-08T12:11:49.181Z,2.17
2022-10-08T12:14:31.625Z,2.47
2022-10-08T12:17:14.001Z,2.42
2022-10-08T12:19:44.748Z,2.78
2022-10-08T12:22:47.576Z,2.40
2022-10-08T12:25:33.965Z,2.22
2022-10-08T12:28:37.105Z,2.20
2022-10-08T12:31:26.423Z,2.45
2022-10-08T12:34:12.391Z,2.10
2022-10-08T12:36:59.461Z,2.42
2022-10-08T12:39:47.729Z,2.08
2022-10-08T12:42:34.689Z,1.90
2022-10-08T12:45:23.397Z,2.42
2022-10-08T12:48:24.179Z,2.38
2022-10-08T12:51:07.731Z,2.70
2022-10-08T12:53:35.926Z,2.58
2022-10-08T12:56:04.034Z,3.67
2022-10-08T12:58:35.778Z,2.00
2022-10-08T13:01:05.761Z,1.85
2022-10-08T13:03:36.202Z,2.15
2022-10-08T13:06:31.757Z,1.98
2022-10-08T13:09:02.434Z,2.30
2022-10-08T13:11:34.201Z,2.00
2022-10-08T13:14:02.354Z,2.58
2022-10-08T13:16:46.881Z,2.15
2022-10-08T13:19:20.364Z,2.30
2022-10-08T13:24:43.576Z,2.33
2022-10-08T13:27:32.901Z,3.45
2022-10-08T13:30:21.373Z,3.08
2022-10-08T13:32:49.530Z,2.30
2022-10-08T13:35:23.782Z,1.95
2022-10-08T13:37:54.164Z,2.30
2022-10-08T13:40:24.872Z,2.15
2022-10-08T13:42:57.009Z,2.25
2022-10-08T13:45:29.706Z,2.75
2022-10-08T13:47:59.402Z,2.58
2022-10-08T13:50:27.358Z,3.30
2022-10-08T13:52:59.442Z,2.55
2022-10-08T13:55:31.016Z,2.20
2022-10-08T13:58:02.302Z,2.22
2022-10-08T14:00:32.166Z,2.35
2022-10-08T14:03:00.215Z,2.17
2022-10-08T14:05:30.500Z,2.22
2022-10-08T14:08:03.474Z,1.95
2022-10-08T14:10:31.694Z,1.77
2022-10-08T14:12:59.968Z,2.60
2022-10-08T14:15:28.384Z,2.13
2022-10-08T14:17:56.779Z,2.40
2022-10-08T14:20:25.504Z,2.70
2022-10-08T14:22:54.912Z,5.68
2022-10-08T14:25:26.498Z,1.92
2022-10-08T14:27:54.899Z,2.42
2022-10-08T14:30:24.111Z,2.40
2022-10-08T14:32:53.850Z,2.67
2022-10-08T14:35:22.791Z,3.92
2022-10-08T14:37:51.931Z,8.10
2022-10-08T14:40:22.945Z,2.60
2022-10-08T14:42:52.082Z,3.03
2022-10-08T14:45:21.256Z,2.97
2022-10-08T14:47:50.197Z,2.65
2022-10-08T14:50:18.719Z,2.88
2022-10-08T14:52:47.885Z,3.70
2022-10-08T14:55:16.728Z,2.80
2022-10-08T14:57:44.811Z,2.72
2022-10-08T15:00:13.783Z,3.20
2022-10-08T15:02:41.850Z,3.00
2022-10-08T15:05:11.106Z,3.22
2022-10-08T15:07:39.716Z,3.83
2022-10-08T15:10:08.781Z,3.88
2022-10-08T15:12:38.017Z,3.75
2022-10-08T15:15:08.683Z,3.83
2022-10-08T15:17:37.355Z,4.03
2022-10-08T15:20:06.610Z,4.05
2022-10-08T15:22:35.488Z,3.75
2022-10-08T15:25:04.036Z,3.53
2022-10-08T15:27:32.705Z,3.42
2022-10-08T15:30:01.371Z,4.07
2022-10-08T15:32:32.489Z,4.20
2022-10-08T15:35:02.442Z,4.32
2022-10-08T15:37:39.772Z,4.03
2022-10-08T15:40:11.079Z,4.05
2022-10-08T15:42:40.569Z,4.35
2022-10-08T15:45:09.759Z,4.03
2022-10-08T15:47:38.828Z,4.50
2022-10-08T15:50:08.643Z,4.70
2022-10-08T15:52:37.528Z,5.03
2022-10-08T15:55:06.551Z,5.00
2022-10-08T15:57:34.873Z,5.03
2022-10-08T16:00:03.617Z,5.05
2022-10-08T16:02:31.959Z,4.68
2022-10-08T16:05:00.396Z,5.00
2022-10-08T16:07:28.753Z,4.00
2022-10-08T16:09:57.180Z,4.07
2022-10-08T16:12:25.552Z,4.15
2022-10-08T16:14:53.820Z,4.30
2022-10-08T16:17:22.216Z,3.83
2022-10-08T16:19:50.688Z,3.40
2022-10-08T16:22:18.964Z,4.00
2022-10-08T16:24:47.333Z,3.35
2022-10-08T16:27:16.329Z,3.50
2022-10-08T16:29:44.831Z,4.25
2022-10-08T16:32:14.093Z,5.03
2022-10-08T16:34:45.021Z,3.72
2022-10-08T16:37:14.335Z,4.38
2022-10-08T16:39:43.160Z,4.18
2022-10-08T16:42:11.729Z,4.50
2022-10-08T16:44:39.961Z,4.13
2022-10-08T16:47:08.290Z,4.60
2022-10-08T16:49:37.168Z,4.30
2022-10-08T16:52:07.293Z,2.95
2022-10-08T16:54:36.983Z,4.95
2022-10-08T16:57:05.188Z,4.05
2022-10-08T16:59:33.804Z,4.15
2022-10-08T17:02:03.038Z,3.90
2022-10-08T17:04:39.396Z,3.88
2022-10-08T17:07:07.964Z,4.25
2022-10-08T17:09:36.687Z,5.03
2022-10-08T17:12:04.840Z,4.97
2022-10-08T17:14:33.573Z,4.70
2022-10-08T17:17:01.849Z,4.85
2022-10-08T17:19:30.621Z,4.13
2022-10-08T17:21:58.979Z,4.05
2022-10-08T17:24:28.655Z,4.28
2022-10-08T17:26:57.776Z,4.78
2022-10-08T17:29:26.215Z,4.55
2022-10-08T17:31:54.879Z,3.33
2022-10-08T17:34:27.908Z,4.32
2022-10-08T17:36:56.287Z,3.20
2022-10-08T17:39:26.504Z,4.53
2022-10-08T17:41:55.112Z,4.18
2022-10-08T17:44:23.835Z,4.70
2022-10-08T17:46:52.635Z,3.83
2022-10-08T17:49:21.637Z,4.30
2022-10-08T17:51:51.672Z,3.88
2022-10-08T17:54:21.817Z,4.30
2022-10-08T17:56:51.678Z,3.83
2022-10-08T17:59:22.952Z,4.15
2022-10-08T18:01:51.630Z,3.55
2022-10-08T18:04:20.656Z,4.55
2022-10-08T18:06:52.494Z,4.72
2022-10-08T18:09:22.423Z,3.50
2022-10-08T18:11:54.193Z,3.80
2022-10-08T18:14:24.393Z,4.28
2022-10-08T18:16:53.336Z,4.25
2022-10-08T18:19:21.603Z,4.78
2022-10-08T18:21:50.087Z,4.65
2022-10-08T18:24:18.688Z,4.63
2022-10-08T18:26:47.426Z,4.35
2022-10-08T18:29:16.079Z,5.50
2022-10-08T18:31:46.269Z,5.70
2022-10-08T18:34:20.220Z,5.28
2022-10-08T18:36:48.454Z,4.85
2022-10-08T18:39:21.596Z,5.10
2022-10-08T18:41:55.564Z,5.28
2022-10-08T18:44:25.988Z,4.93
2022-10-08T18:46:55.661Z,4.85
2022-10-08T18:49:30.968Z,4.43
2022-10-08T18:52:00.008Z,5.00
2022-10-08T18:54:28.769Z,4.25
2022-10-08T18:56:59.283Z,7.38
2022-10-08T18:59:28.427Z,4.40
2022-10-08T19:01:59.578Z,4.53
2022-10-08T19:04:28.163Z,4.07
2022-10-08T19:06:57.628Z,3.92
2022-10-08T19:09:27.460Z,3.70
2022-10-08T19:11:56.532Z,4.00
2022-10-08T19:14:25.411Z,3.67
2022-10-08T19:16:53.751Z,4.18
2022-10-08T19:19:27.754Z,3.85
2022-10-08T19:21:56.272Z,4.80
2022-10-08T19:24:26.300Z,4.20
2022-10-08T19:26:56.156Z,3.90
2022-10-08T19:29:29.763Z,4.18
2022-10-08T19:31:58.177Z,5.03
2022-10-08T19:34:28.166Z,4.28
2022-10-08T19:37:00.418Z,5.57
2022-10-08T19:39:31.686Z,5.13
2022-10-08T19:42:03.374Z,5.13
2022-10-08T19:44:37.054Z,5.57
2022-10-08T19:47:07.908Z,4.63
2022-10-08T19:49:38.029Z,8.98
2022-10-08T19:52:11.690Z,4.47
2022-10-08T19:54:42.924Z,4.00
2022-10-08T19:57:13.720Z,3.65
2022-10-08T19:59:45.418Z,3.40
2022-10-08T20:02:15.612Z,3.80
2022-10-08T20:04:47.872Z,4.28
2022-10-08T20:07:18.626Z,3.93
2022-10-08T20:09:47.769Z,3.40
2022-10-08T20:12:15.953Z,4.00
2022-10-08T20:14:44.333Z,3.63
2022-10-08T20:17:12.713Z,4.15
2022-10-08T20:19:41.123Z,3.65
2022-10-08T20:22:11.802Z,3.72
2022-10-08T20:24:40.641Z,3.20
2022-10-08T20:27:09.616Z,3.72
2022-10-08T20:29:37.860Z,3.72
2022-10-08T20:32:06.341Z,3.50
2022-10-08T20:34:34.887Z,3.92
2022-10-08T20:37:03.968Z,3.85
2022-10-08T20:39:32.515Z,3.40
2022-10-08T20:42:00.697Z,3.75
2022-10-08T20:44:28.931Z,3.28
2022-10-08T20:46:57.131Z,3.58
2022-10-08T20:49:25.426Z,3.65
2022-10-08T20:51:53.391Z,3.40
2022-10-08T20:54:21.565Z,4.05
2022-10-08T20:56:49.791Z,5.78
2022-10-08T20:59:19.327Z,6.38
2022-10-08T21:01:47.555Z,3.67
2022-10-08T21:04:15.947Z,4.18
2022-10-08T21:06:46.413Z,3.10
2022-10-08T21:09:15.254Z,3.28
2022-10-08T21:11:46.325Z,2.90
2022-10-08T21:14:18.823Z,3.20
2022-10-08T21:16:46.643Z,3.22
2022-10-08T21:19:18.980Z,3.40
2022-10-08T21:21:47.246Z,2.92
2022-10-08T21:24:15.189Z,3.13
2022-10-08T21:26:43.574Z,3.58
2022-10-08T21:29:13.868Z,3.03
2022-10-08T21:31:42.181Z,3.00
2022-10-08T21:34:11.957Z,3.42
2022-10-08T21:36:41.014Z,3.30
2022-10-08T21:39:14.256Z,2.63
2022-10-08T21:41:43.806Z,3.00
2022-10-08T21:44:13.467Z,2.78
2022-10-08T21:46:42.313Z,2.78
2022-10-08T21:49:14.499Z,2.97
2022-10-08T21:51:42.868Z,3.30
2022-10-08T21:54:11.851Z,2.90
2022-10-08T21:56:41.061Z,2.70
2022-10-08T21:59:13.996Z,2.72
2022-10-08T22:01:44.964Z,2.80
2022-10-08T22:04:15.664Z,2.65
2022-10-08T22:06:46.626Z,3.22
2022-10-08T22:09:18.830Z,2.60
2022-10-08T22:11:46.711Z,3.03
2022-10-08T22:14:15.178Z,3.17
2022-10-08T22:16:43.303Z,2.72
2022-10-08T22:19:11.590Z,3.10
2022-10-08T22:21:39.743Z,3.10
2022-10-08T22:24:07.685Z,3.10
2022-10-08T22:26:38.149Z,2.63
2022-10-08T22:29:06.963Z,2.72
2022-10-08T22:31:34.952Z,2.70
2022-10-08T22:34:02.825Z,3.08
2022-10-08T22:36:32.330Z,2.85
2022-10-08T22:39:00.455Z,2.80
2022-10-08T22:41:31.272Z,2.50
2022-10-08T22:44:00.395Z,2.67
2022-10-08T22:46:31.057Z,2.17
2022-10-08T22:49:01.469Z,3.05
2022-10-08T22:51:30.135Z,2.75
2022-10-08T22:53:58.184Z,2.60
2022-10-08T22:56:29.654Z,2.42
2022-10-08T22:58:59.661Z,2.38
2022-10-08T23:01:29.291Z,2.63
2022-10-08T23:03:57.296Z,3.13
2022-10-08T23:06:29.151Z,4.55
2022-10-08T23:09:00.211Z,4.65
2022-10-08T23:11:29.122Z,2.67
2022-10-08T23:13:58.488Z,2.47
2022-10-08T23:16:28.061Z,3.05
2022-10-08T23:19:01.267Z,2.45
2022-10-08T23:21:29.882Z,2.47
2022-10-08T23:23:57.899Z,2.60
2022-10-08T23:26:26.167Z,2.45
2022-10-08T23:28:56.709Z,2.75
2022-10-08T23:31:27.976Z,2.40
2022-10-08T23:33:56.372Z,2.88
2022-10-08T23:36:34.570Z,2.53
2022-10-08T23:39:02.672Z,2.45
2022-10-08T23:41:30.957Z,2.80
2022-10-08T23:43:59.443Z,2.88
2022-10-08T23:46:29.202Z,2.80
2022-10-08T23:48:57.399Z,2.50
2022-10-08T23:51:28.193Z,2.40
2022-10-08T23:53:56.374Z,2.63
2022-10-08T23:56:24.306Z,2.72
2022-10-08T23:58:52.181Z,2.25
